Terminal Aerodrome Forecast
Issued by NWS St Louis, MO

Home | Current Version | Previous Version | Text Only | Print | Product List | Glossary On
Versions: 1 2 3 4 5 6 7 8 9 10 11 12 13 14 15 16 17 18 19 20 21 22 23 24 25 26 27 28 29 30 31 32 33
000
FTUS43 KLSX 291256 AAA
TAFSTL
TAF AMD
KSTL 291256Z 2913/3018 08012G18KT 4SM TSRA BR BKN007 OVC012CB
     FM291900 09012G18KT 3SM SHRA OVC012
      TEMPO 2919/2923 2SM TSRA OVC012CB
     FM292300 11012KT 3SM SHRA VCTS OVC015CB
     FM300200 12012KT 3SM SHRA OVC020
     FM301700 16012KT 4SM BR OVC020=

USA.gov is the U.S. government's official web portal to all federal, state and local government web resources and services.